Laval-Ouest, Canada
Current Conditions -  °F | °C
As of 11:47 PM on Saturday 22 Nov 2014 (Local Time) from CYUL Reporting Station
Drizzle Drizzle  
Wind Chill: -1°   Ceiling: 400
Heat Index:   Visibility: 3mi
Dew Point:   Wind: 9mph
Humidity: 93%   Direction: 240°WSW
Pressure: 29.9"   Gusts: NA
Location:  45.55°N, 73.87°W
Report Text: CYUL 230447Z 24008KT 3SM -DZ BR OVC004 03/02 A2990 RMK ST8 SLP125
Loading
Personal Weather Stations






























Interactive Weather Map New forecast layout! Learn more

10-Day Weather Forecast

Advertisements
Track Severe Weather on mobile